Terminal Aerodrome Forecast
Issued by NWS

Current Version | Previous Version | Text Only | Print | Product List | Glossary On
Versions: 1 2 3 4 5 6 7 8 9 10 11 12 13
000
FTUS46 KLOX 021122
TAFSBP
TAF
KSBP 021122Z 0212/0312 VRB03KT P6SM BKN150
     FM022000 31008KT P6SM SCT150
     FM030300 VRB03KT P6SM SCT150
     FM031000 VRB03KT 5SM BR BKN005=

USA.gov is the U.S. government's official web portal to all federal, state and local government web resources and services.